createdAt,value
2018-07-24T00:01:38.828Z,100456.81
2018-07-24T00:04:07.855Z,100462.52
2018-07-24T00:06:37.256Z,100454.30
2018-07-24T00:09:09.067Z,100454.02
2018-07-24T00:11:38.435Z,100448.82
2018-07-24T00:14:07.796Z,100447.47
2018-07-24T00:16:36.813Z,100452.89
2018-07-24T00:19:06.290Z,100450.69
2018-07-24T00:21:35.083Z,100456.92
2018-07-24T00:24:04.407Z,100452.55
2018-07-24T00:26:33.239Z,100458.53
2018-07-24T00:29:01.985Z,100460.16
2018-07-24T00:31:30.772Z,100464.72
2018-07-24T00:33:59.506Z,100461.17
2018-07-24T00:36:28.343Z,100457.36
2018-07-24T00:38:57.177Z,100462.23
2018-07-24T00:41:25.973Z,100463.56
2018-07-24T00:43:54.736Z,100461.65
2018-07-24T00:46:23.624Z,100465.16
2018-07-24T00:48:53.277Z,100463.52
2018-07-24T00:51:22.733Z,100464.89
2018-07-24T00:53:51.522Z,100457.53
2018-07-24T00:56:20.887Z,100460.77
2018-07-24T00:58:49.699Z,100471.89
2018-07-24T01:01:19.257Z,100468.05
2018-07-24T01:03:49.074Z,100474.56
2018-07-24T01:06:17.844Z,100471.79
2018-07-24T01:08:46.664Z,100467.13
2018-07-24T01:11:15.474Z,100466.80
2018-07-24T01:13:44.237Z,100472.68
2018-07-24T01:16:13.167Z,100473.48
2018-07-24T01:18:41.982Z,100472.62
2018-07-24T01:21:10.807Z,100473.14
2018-07-24T01:23:39.611Z,100466.61
2018-07-24T01:26:08.839Z,100467.66
2018-07-24T01:28:38.590Z,100465.70
2018-07-24T01:31:08.035Z,100465.13
2018-07-24T01:33:37.101Z,100469.20
2018-07-24T01:36:06.065Z,100466.43
2018-07-24T01:38:34.826Z,100465.86
2018-07-24T01:41:03.751Z,100463.09
2018-07-24T01:43:32.519Z,100461.70
2018-07-24T01:46:01.292Z,100462.98
2018-07-24T01:48:30.909Z,100460.00
2018-07-24T01:51:00.221Z,100465.13
2018-07-24T01:53:28.965Z,100461.89
2018-07-24T01:55:58.369Z,100465.92
2018-07-24T01:58:27.626Z,100466.42
2018-07-24T02:01:01.332Z,100469.60
2018-07-24T02:03:31.210Z,100468.74
2018-07-24T02:06:00.644Z,100466.78
2018-07-24T02:08:29.383Z,100471.34
2018-07-24T02:10:58.147Z,100471.31
2018-07-24T02:13:26.934Z,100476.69
2018-07-24T02:15:55.726Z,100474.20
2018-07-24T02:18:24.535Z,100478.77
2018-07-24T02:20:53.369Z,100479.26
2018-07-24T02:23:22.079Z,100475.19
2018-07-24T02:25:50.859Z,100474.33
2018-07-24T02:28:19.635Z,100474.04
2018-07-24T02:30:48.558Z,100477.25
2018-07-24T02:33:17.379Z,100481.56
2018-07-24T02:35:46.194Z,100476.92
2018-07-24T02:38:15.671Z,100480.73
2018-07-24T02:40:44.428Z,100482.58
2018-07-24T02:43:13.491Z,100479.30
2018-07-24T02:45:42.348Z,100479.83
2018-07-24T02:48:11.095Z,100482.83
2018-07-24T02:50:39.896Z,100487.47
2018-07-24T02:53:08.889Z,100488.58
2018-07-24T02:55:38.751Z,100486.41
2018-07-24T02:58:08.673Z,100492.80
2018-07-24T03:00:38.790Z,100493.96
2018-07-24T03:03:08.891Z,100501.95
2018-07-24T03:05:38.902Z,100489.78
2018-07-24T03:08:07.916Z,100497.22
2018-07-24T03:10:36.891Z,100498.02
2018-07-24T03:13:05.809Z,100492.54
2018-07-24T03:15:34.618Z,100490.47
2018-07-24T03:18:03.520Z,100496.02
2018-07-24T03:20:32.404Z,100485.66
2018-07-24T03:23:01.154Z,100484.81
2018-07-24T03:25:30.414Z,100486.31
2018-07-24T03:27:59.212Z,100492.09
2018-07-24T03:30:28.324Z,100499.74
2018-07-24T03:32:57.152Z,100500.31
2018-07-24T03:35:25.936Z,100497.48
2018-07-24T03:37:54.671Z,100496.31
2018-07-24T03:40:23.438Z,100492.55
2018-07-24T03:42:52.479Z,100500.28
2018-07-24T03:45:21.203Z,100501.06
2018-07-24T03:47:49.915Z,100499.61
2018-07-24T03:50:18.709Z,100501.90
2018-07-24T03:52:47.451Z,100495.16
2018-07-24T03:55:17.164Z,100502.17
2018-07-24T03:57:46.827Z,100498.05
2018-07-24T04:00:16.138Z,100503.52
2018-07-24T04:02:45.643Z,100506.80
2018-07-24T04:05:14.969Z,100507.94
2018-07-24T04:07:43.802Z,100514.14
2018-07-24T04:10:12.594Z,100505.42
2018-07-24T04:12:41.395Z,100511.35
2018-07-24T04:15:10.123Z,100515.13
2018-07-24T04:17:39.301Z,100516.09
2018-07-24T04:20:08.422Z,100511.67
2018-07-24T04:22:37.413Z,100513.91
2018-07-24T04:25:06.519Z,100523.42
2018-07-24T04:27:35.729Z,100522.16
2018-07-24T04:30:05.528Z,100529.08
2018-07-24T04:32:34.405Z,100523.86
2018-07-24T04:35:03.172Z,100523.81
2018-07-24T04:37:32.007Z,100526.67
2018-07-24T04:40:00.845Z,100527.31
2018-07-24T04:42:29.771Z,100520.61
2018-07-24T04:44:58.495Z,100528.28
2018-07-24T04:47:27.215Z,100523.96
2018-07-24T04:49:56.008Z,100525.36
2018-07-24T04:52:24.740Z,100531.64
2018-07-24T04:54:53.923Z,100527.34
2018-07-24T04:57:23.574Z,100532.79
2018-07-24T04:59:53.084Z,100535.79
2018-07-24T05:02:22.839Z,100537.39
2018-07-24T05:04:52.203Z,100539.85
2018-07-24T05:07:20.950Z,100540.39
2018-07-24T05:09:49.689Z,100533.00
2018-07-24T05:12:18.495Z,100545.81
2018-07-24T05:14:47.223Z,100539.52
2018-07-24T05:17:16.136Z,100546.91
2018-07-24T05:19:44.976Z,100546.88
2018-07-24T05:22:13.731Z,100541.36
2018-07-24T05:24:42.659Z,100540.81
2018-07-24T05:27:11.516Z,100540.25
2018-07-24T05:29:40.464Z,100541.06
2018-07-24T05:32:09.379Z,100540.48
2018-07-24T05:34:38.602Z,100540.20
2018-07-24T05:37:08.040Z,100544.27
2018-07-24T05:39:37.001Z,100547.00
2018-07-24T05:42:06.016Z,100544.29
2018-07-24T05:44:34.804Z,100536.64
2018-07-24T05:47:03.532Z,100541.81
2018-07-24T05:49:32.298Z,100540.13
2018-07-24T05:52:01.083Z,100545.64
2018-07-24T05:54:30.355Z,100544.03
2018-07-24T05:56:59.757Z,100545.99
2018-07-24T05:59:29.042Z,100543.83
2018-07-24T06:01:59.122Z,100551.23
2018-07-24T06:04:28.803Z,100543.83
2018-07-24T06:06:57.598Z,100548.48
2018-07-24T06:09:26.347Z,100552.81
2018-07-24T06:11:55.299Z,100539.42
2018-07-24T06:14:24.076Z,100543.75
2018-07-24T06:16:53.081Z,100553.23
2018-07-24T06:19:21.868Z,100550.45
2018-07-24T06:21:51.236Z,100551.23
2018-07-24T06:24:19.978Z,100547.59
2018-07-24T06:26:48.981Z,100551.91
2018-07-24T06:29:17.901Z,100547.83
2018-07-24T06:31:47.835Z,100554.97
2018-07-24T06:34:16.671Z,100557.66
2018-07-24T06:36:45.436Z,100557.09
2018-07-24T06:39:14.599Z,100558.69
2018-07-24T06:41:43.723Z,100549.37
2018-07-24T06:44:13.280Z,100551.65
2018-07-24T06:46:42.092Z,100547.97
2018-07-24T06:49:10.874Z,100544.37
2018-07-24T06:51:40.126Z,100543.16
2018-07-24T06:54:10.051Z,100544.03
2018-07-24T06:56:40.072Z,100531.95
2018-07-24T06:59:08.996Z,100534.73
2018-07-24T07:01:39.311Z,100543.02
2018-07-24T07:04:09.169Z,100541.66
2018-07-24T07:06:38.309Z,100543.00
2018-07-24T07:09:08.901Z,100542.23
2018-07-24T07:11:38.369Z,100542.66
2018-07-24T07:14:07.634Z,100537.69
2018-07-24T07:16:38.352Z,100533.75
2018-07-24T07:19:08.133Z,100537.05
2018-07-24T07:21:37.609Z,100541.70
2018-07-24T07:24:06.787Z,100546.50
2018-07-24T07:26:35.614Z,100539.31
2018-07-24T07:29:04.781Z,100544.34
2018-07-24T07:31:33.608Z,100547.71
2018-07-24T07:34:02.447Z,100543.69
2018-07-24T07:36:31.256Z,100537.31
2018-07-24T07:39:00.049Z,100542.84
2018-07-24T07:41:28.939Z,100537.23
2018-07-24T07:43:57.728Z,100541.97
2018-07-24T07:46:26.568Z,100547.58
2018-07-24T07:48:55.428Z,100542.80
2018-07-24T07:51:24.171Z,100535.40
2018-07-24T07:53:53.315Z,100532.96
2018-07-24T07:56:23.178Z,100534.48
2018-07-24T07:58:52.000Z,100534.33
2018-07-24T08:01:21.584Z,100539.93
2018-07-24T08:03:51.184Z,100539.22
2018-07-24T08:06:20.783Z,100535.63
2018-07-24T08:08:49.593Z,100530.77
2018-07-24T08:11:18.332Z,100532.00
2018-07-24T08:13:47.155Z,100533.70
2018-07-24T08:16:15.883Z,100534.69
2018-07-24T08:18:44.779Z,100537.80
2018-07-24T08:21:13.621Z,100534.87
2018-07-24T08:23:42.427Z,100536.41
2018-07-24T08:26:11.155Z,100536.66
2018-07-24T08:28:40.723Z,100543.28
2018-07-24T08:31:09.936Z,100537.55
2018-07-24T08:33:39.114Z,100535.81
2018-07-24T08:36:08.299Z,100536.94
2018-07-24T08:38:37.507Z,100536.97
2018-07-24T08:41:06.448Z,100535.87
2018-07-24T08:43:35.516Z,100528.36
2018-07-24T08:46:04.400Z,100537.41
2018-07-24T08:48:33.172Z,100529.09
2018-07-24T08:51:01.951Z,100526.48
2018-07-24T08:53:30.976Z,100528.55
2018-07-24T08:56:00.708Z,100521.54
2018-07-24T08:58:29.479Z,100523.86
2018-07-24T09:00:59.039Z,100527.32
2018-07-24T09:03:28.582Z,100522.64
2018-07-24T09:05:58.005Z,100523.72
2018-07-24T09:08:26.750Z,100524.06
2018-07-24T09:10:55.601Z,100523.09
2018-07-24T09:13:24.403Z,100523.66
2018-07-24T09:15:53.208Z,100524.31
2018-07-24T09:18:22.051Z,100527.21
2018-07-24T09:20:50.885Z,100525.15
2018-07-24T09:23:19.634Z,100532.27
2018-07-24T09:25:48.388Z,100528.94
2018-07-24T09:28:17.167Z,100533.70
2018-07-24T09:30:46.243Z,100530.08
2018-07-24T09:33:15.116Z,100528.66
2018-07-24T09:35:43.884Z,100532.27
2018-07-24T09:38:13.033Z,100523.44
2018-07-24T09:40:41.794Z,100523.44
2018-07-24T09:43:10.785Z,100519.81
2018-07-24T09:45:39.664Z,100518.81
2018-07-24T09:48:09.426Z,100522.06
2018-07-24T09:50:38.572Z,100523.41
2018-07-24T09:53:07.759Z,100526.41
2018-07-24T09:55:37.195Z,100521.97
2018-07-24T09:58:07.016Z,100520.52
2018-07-24T10:00:41.598Z,100522.58
2018-07-24T10:03:11.072Z,100515.28
2018-07-24T10:05:40.172Z,100519.03
2018-07-24T10:08:09.723Z,100517.27
2018-07-24T10:10:39.325Z,100515.03
2018-07-24T10:13:08.545Z,100524.75
2018-07-24T10:15:37.423Z,100519.95
2018-07-24T10:18:06.660Z,100510.09
2018-07-24T10:20:35.512Z,100512.06
2018-07-24T10:23:04.359Z,100507.20
2018-07-24T10:25:33.092Z,100509.70
2018-07-24T10:28:01.881Z,100509.70
2018-07-24T10:30:30.806Z,100504.43
2018-07-24T10:32:59.532Z,100499.55
2018-07-24T10:35:28.448Z,100501.68
2018-07-24T10:37:57.160Z,100503.45
2018-07-24T10:40:25.896Z,100501.11
2018-07-24T10:42:54.893Z,100502.17
2018-07-24T10:45:23.655Z,100498.27
2018-07-24T10:47:52.394Z,100497.01
2018-07-24T10:50:21.201Z,100492.05
2018-07-24T10:52:49.943Z,100496.67
2018-07-24T10:55:20.015Z,100500.58
2018-07-24T10:57:49.929Z,100500.50
2018-07-24T11:00:19.527Z,100497.05
2018-07-24T11:02:49.048Z,100494.17
2018-07-24T11:05:18.664Z,100489.28
2018-07-24T11:07:47.408Z,100493.73
2018-07-24T11:10:16.259Z,100491.69
2018-07-24T11:12:45.045Z,100491.94
2018-07-24T11:15:13.826Z,100492.19
2018-07-24T11:17:42.820Z,100488.61
2018-07-24T11:20:11.675Z,100481.77
2018-07-24T11:22:40.523Z,100485.56
2018-07-24T11:25:10.197Z,100485.53
2018-07-24T11:27:39.197Z,100480.02
2018-07-24T11:30:08.936Z,100483.45
2018-07-24T11:32:38.194Z,100482.46
2018-07-24T11:35:07.284Z,100487.42
2018-07-24T11:37:36.421Z,100480.84
2018-07-24T11:40:05.239Z,100482.55
2018-07-24T11:42:34.163Z,100481.33
2018-07-24T11:45:02.934Z,100486.60
2018-07-24T11:47:31.713Z,100486.60
2018-07-24T11:50:00.579Z,100476.53
2018-07-24T11:52:29.391Z,100481.68
2018-07-24T11:54:58.594Z,100483.47
2018-07-24T11:57:28.079Z,100482.58
2018-07-24T11:59:57.533Z,100485.19
2018-07-24T12:02:27.006Z,100480.87
2018-07-24T12:04:56.339Z,100473.06
2018-07-24T12:07:25.153Z,100472.72
2018-07-24T12:09:53.897Z,100471.75
2018-07-24T12:12:22.667Z,100466.03
2018-07-24T12:14:51.560Z,100475.00
2018-07-24T12:17:20.440Z,100468.80
2018-07-24T12:19:49.246Z,100469.70
2018-07-24T12:22:18.071Z,100473.36
2018-07-24T12:24:46.851Z,100475.08
2018-07-24T12:27:15.666Z,100474.31
2018-07-24T12:29:44.699Z,100472.95
2018-07-24T12:32:13.495Z,100473.27
2018-07-24T12:34:42.287Z,100474.50
2018-07-24T12:37:11.397Z,100473.93
2018-07-24T12:39:40.163Z,100473.45
2018-07-24T12:42:09.558Z,100470.70
2018-07-24T12:44:38.795Z,100473.61
2018-07-24T12:47:07.886Z,100472.38
2018-07-24T12:49:37.094Z,100462.31
2018-07-24T12:52:06.504Z,100467.52
2018-07-24T12:54:35.375Z,100465.73
2018-07-24T12:57:04.964Z,100460.50
2018-07-24T12:59:34.692Z,100463.79
2018-07-24T13:02:04.167Z,100459.92
2018-07-24T13:04:33.498Z,100469.17
2018-07-24T13:07:02.242Z,100465.36
2018-07-24T13:09:31.034Z,100463.74
2018-07-24T13:11:59.818Z,100468.41
2018-07-24T13:14:28.609Z,100462.30
2018-07-24T13:16:57.483Z,100465.78
2018-07-24T13:19:26.866Z,100467.64
2018-07-24T13:21:55.683Z,100463.73
2018-07-24T13:24:24.503Z,100464.44
2018-07-24T13:26:53.322Z,100460.21
2018-07-24T13:29:22.216Z,100456.33
2018-07-24T13:31:51.168Z,100464.19
2018-07-24T13:34:19.843Z,100455.09
2018-07-24T13:36:48.629Z,100454.98
2018-07-24T13:39:17.472Z,100456.25
2018-07-24T13:41:46.362Z,100457.87
2018-07-24T13:44:15.094Z,100452.03
2018-07-24T13:46:43.848Z,100459.95
2018-07-24T13:49:12.644Z,100451.42
2018-07-24T13:51:41.446Z,100454.23
2018-07-24T13:54:10.616Z,100453.41
2018-07-24T13:56:41.171Z,100454.44
2018-07-24T13:59:10.550Z,100453.76
2018-07-24T14:01:40.400Z,100458.72
2018-07-24T14:04:11.340Z,100456.30
2018-07-24T14:06:40.747Z,100453.64
2018-07-24T14:09:11.639Z,100452.81
2018-07-24T14:11:41.649Z,100448.22
2018-07-24T14:14:11.018Z,100444.63
2018-07-24T14:16:40.221Z,100450.41
2018-07-24T14:19:09.627Z,100440.81
2018-07-24T14:21:38.762Z,100441.36
2018-07-24T14:24:07.779Z,100439.41
2018-07-24T14:26:36.756Z,100439.98
2018-07-24T14:29:05.570Z,100446.35
2018-07-24T14:31:34.393Z,100439.32
2018-07-24T14:34:03.205Z,100447.19
2018-07-24T14:36:32.017Z,100443.83
2018-07-24T14:39:00.852Z,100438.62
2018-07-24T14:41:29.749Z,100434.36
2018-07-24T14:43:58.560Z,100444.77
2018-07-24T14:46:28.549Z,100441.95
2018-07-24T14:48:57.441Z,100446.66
2018-07-24T14:51:26.882Z,100444.80
2018-07-24T14:53:55.761Z,100442.16
2018-07-24T14:56:25.205Z,100437.56
2018-07-24T14:58:54.371Z,100440.67
2018-07-24T15:01:24.096Z,100434.31
2018-07-24T15:03:53.472Z,100437.86
2018-07-24T15:06:22.956Z,100437.23
2018-07-24T15:08:51.892Z,100441.83
2018-07-24T15:11:20.608Z,100447.66
2018-07-24T15:13:49.407Z,100449.85
2018-07-24T15:16:18.150Z,100446.52
2018-07-24T15:18:47.134Z,100444.22
2018-07-24T15:21:15.919Z,100442.97
2018-07-24T15:23:44.671Z,100437.91
2018-07-24T15:26:13.434Z,100445.53
2018-07-24T15:28:42.311Z,100444.79
2018-07-24T15:31:12.579Z,100452.64
2018-07-24T15:33:41.775Z,100451.84
2018-07-24T15:36:11.107Z,100451.91
2018-07-24T15:38:40.335Z,100447.95
2018-07-24T15:41:09.455Z,100439.70
2018-07-24T15:43:39.027Z,100447.17
2018-07-24T15:46:07.845Z,100448.05
2018-07-24T15:48:36.658Z,100444.91
2018-07-24T15:51:05.452Z,100446.73
2018-07-24T15:53:34.271Z,100446.06
2018-07-24T15:56:03.716Z,100446.69
2018-07-24T15:58:32.451Z,100453.16
2018-07-24T16:01:01.855Z,100456.80
2018-07-24T16:03:31.285Z,100447.27
2018-07-24T16:06:00.484Z,100450.23
2018-07-24T16:08:29.294Z,100444.45
2018-07-24T16:10:58.049Z,100449.48
2018-07-24T16:13:26.991Z,100443.78
2018-07-24T16:15:55.814Z,100446.48
2018-07-24T16:18:24.683Z,100440.95
2018-07-24T16:20:53.501Z,100439.86
2018-07-24T16:23:22.300Z,100440.70
2018-07-24T16:25:51.048Z,100439.45
2018-07-24T16:28:19.915Z,100440.14
2018-07-24T16:30:48.982Z,100436.71
2018-07-24T16:33:17.783Z,100429.81
2018-07-24T16:35:46.637Z,100436.80
2018-07-24T16:38:15.602Z,100432.09
2018-07-24T16:40:44.471Z,100434.06
2018-07-24T16:43:13.780Z,100435.64
2018-07-24T16:45:43.163Z,100440.74
2018-07-24T16:48:12.323Z,100441.16
2018-07-24T16:50:41.426Z,100435.67
2018-07-24T16:53:10.340Z,100434.52
2018-07-24T16:55:40.420Z,100429.20
2018-07-24T16:58:11.338Z,100432.95
2018-07-24T17:00:41.331Z,100432.84
2018-07-24T17:03:11.958Z,100433.59
2018-07-24T17:05:41.924Z,100433.31
2018-07-24T17:08:11.144Z,100433.55
2018-07-24T17:10:40.183Z,100431.83
2018-07-24T17:13:08.961Z,100424.51
2018-07-24T17:15:37.732Z,100426.97
2018-07-24T17:18:06.694Z,100430.88
2018-07-24T17:20:35.698Z,100426.72
2018-07-24T17:23:04.520Z,100426.51
2018-07-24T17:25:33.256Z,100428.88
2018-07-24T17:28:02.101Z,100430.39
2018-07-24T17:30:31.041Z,100431.58
2018-07-24T17:32:59.738Z,100432.09
2018-07-24T17:35:28.856Z,100429.52
2018-07-24T17:37:57.618Z,100431.71
2018-07-24T17:40:26.460Z,100431.03
2018-07-24T17:42:55.326Z,100431.45
2018-07-24T17:45:24.222Z,100436.05
2018-07-24T17:47:52.950Z,100432.69
2018-07-24T17:50:21.779Z,100437.95
2018-07-24T17:52:50.522Z,100436.77
2018-07-24T17:55:20.575Z,100439.80
2018-07-24T17:57:49.991Z,100445.83
2018-07-24T18:00:19.677Z,100451.27
2018-07-24T18:02:49.040Z,100451.86
2018-07-24T18:05:18.471Z,100442.84
2018-07-24T18:07:47.261Z,100443.11
2018-07-24T18:10:16.449Z,100450.34
2018-07-24T18:12:45.247Z,100441.98
2018-07-24T18:15:15.188Z,100446.98
2018-07-24T18:17:44.304Z,100444.88
2018-07-24T18:20:13.468Z,100447.51
2018-07-24T18:22:42.803Z,100452.87
2018-07-24T18:25:12.600Z,100455.24
2018-07-24T18:27:42.878Z,100451.86
2018-07-24T18:30:11.903Z,100459.30
2018-07-24T18:32:40.765Z,100451.48
2018-07-24T18:35:09.575Z,100456.88
2018-07-24T18:37:38.402Z,100453.17
2018-07-24T18:40:07.496Z,100459.05
2018-07-24T18:42:36.524Z,100470.22
2018-07-24T18:45:05.387Z,100466.25
2018-07-24T18:47:34.172Z,100474.63
2018-07-24T18:50:03.004Z,100474.31
2018-07-24T18:52:32.151Z,100474.25
2018-07-24T18:55:00.908Z,100480.43
2018-07-24T18:57:30.799Z,100475.22
2018-07-24T19:00:00.196Z,100472.56
2018-07-24T19:02:29.422Z,100479.98
2018-07-24T19:04:59.131Z,100481.69
2018-07-24T19:07:27.897Z,100474.90
2018-07-24T19:09:56.634Z,100487.28
2018-07-24T19:12:25.403Z,100489.69
2018-07-24T19:14:54.147Z,100484.62
2018-07-24T19:17:23.012Z,100486.34
2018-07-24T19:19:51.826Z,100490.04
2018-07-24T19:22:20.588Z,100488.23
2018-07-24T19:24:49.362Z,100489.28
2018-07-24T19:27:18.162Z,100492.99
2018-07-24T19:29:47.685Z,100495.58
2018-07-24T19:32:16.430Z,100491.05
2018-07-24T19:34:45.203Z,100494.75
2018-07-24T19:37:14.135Z,100497.05
2018-07-24T19:39:43.276Z,100498.16
2018-07-24T19:42:12.365Z,100506.98
2018-07-24T19:44:42.056Z,100507.55
2018-07-24T19:47:10.954Z,100502.89
2018-07-24T19:49:39.923Z,100506.80
2018-07-24T19:52:08.848Z,100508.19
2018-07-24T19:54:37.876Z,100512.58
2018-07-24T19:57:07.603Z,100512.24
2018-07-24T19:59:37.068Z,100521.27
2018-07-24T20:02:06.763Z,100531.15
2018-07-24T20:04:36.928Z,100527.00
2018-07-24T20:07:06.162Z,100538.32
2018-07-24T20:09:34.925Z,100541.97
2018-07-24T20:12:03.756Z,100541.16
2018-07-24T20:14:32.553Z,100549.52
2018-07-24T20:17:01.470Z,100550.93
2018-07-24T20:19:30.254Z,100551.84
2018-07-24T20:21:59.075Z,100560.97
2018-07-24T20:24:27.850Z,100554.78
2018-07-24T20:26:56.685Z,100557.36
2018-07-24T20:29:26.288Z,100560.17
2018-07-24T20:31:55.051Z,100561.33
2018-07-24T20:34:23.839Z,100562.75
2018-07-24T20:36:52.679Z,100562.61
2018-07-24T20:39:21.452Z,100561.61
2018-07-24T20:41:50.317Z,100563.65
2018-07-24T20:44:19.100Z,100564.24
2018-07-24T20:46:47.866Z,100566.80
2018-07-24T20:49:16.638Z,100568.31
2018-07-24T20:51:45.467Z,100563.20
2018-07-24T20:54:14.659Z,100568.23
2018-07-24T20:56:44.377Z,100573.75
2018-07-24T20:59:14.242Z,100570.81
2018-07-24T21:01:43.983Z,100568.17
2018-07-24T21:04:13.810Z,100565.80
2018-07-24T21:06:43.616Z,100567.17
2018-07-24T21:09:12.496Z,100571.08
2018-07-24T21:11:41.787Z,100572.22
2018-07-24T21:14:11.315Z,100578.33
2018-07-24T21:16:40.248Z,100579.27
2018-07-24T21:19:09.151Z,100580.14
2018-07-24T21:21:38.512Z,100580.23
2018-07-24T21:24:07.293Z,100587.11
2018-07-24T21:26:36.089Z,100587.72
2018-07-24T21:29:05.528Z,100594.10
2018-07-24T21:31:34.248Z,100598.00
2018-07-24T21:34:03.008Z,100590.94
2018-07-24T21:36:31.788Z,100593.19
2018-07-24T21:39:00.536Z,100589.92
2018-07-24T21:41:29.534Z,100595.16
2018-07-24T21:43:58.315Z,100591.33
2018-07-24T21:46:27.092Z,100593.31
2018-07-24T21:48:55.937Z,100597.73
2018-07-24T21:51:24.699Z,100594.30
2018-07-24T21:53:53.677Z,100597.66
2018-07-24T21:56:23.203Z,100610.91
2018-07-24T21:58:51.955Z,100601.71
2018-07-24T22:01:25.798Z,100609.69
2018-07-24T22:03:55.262Z,100609.49
2018-07-24T22:06:24.931Z,100609.02
2018-07-24T22:08:53.756Z,100614.53
2018-07-24T22:11:22.463Z,100610.80
2018-07-24T22:13:51.241Z,100619.05
2018-07-24T22:16:19.953Z,100615.56
2018-07-24T22:18:48.827Z,100622.72
2018-07-24T22:21:17.659Z,100630.45
2018-07-24T22:23:46.387Z,100627.81
2018-07-24T22:26:15.403Z,100630.59
2018-07-24T22:28:45.054Z,100628.69
2018-07-24T22:31:14.167Z,100628.14
2018-07-24T22:33:43.116Z,100627.30
2018-07-24T22:36:12.734Z,100623.48
2018-07-24T22:38:41.695Z,100630.35
2018-07-24T22:41:11.028Z,100621.09
2018-07-24T22:43:39.857Z,100624.10
2018-07-24T22:46:08.972Z,100630.16
2018-07-24T22:48:37.752Z,100624.44
2018-07-24T22:51:06.595Z,100636.45
2018-07-24T22:53:35.798Z,100632.67
2018-07-24T22:56:05.467Z,100631.59
2018-07-24T22:58:34.239Z,100632.45
2018-07-24T23:01:03.949Z,100628.91
2018-07-24T23:03:33.152Z,100626.22
2018-07-24T23:06:02.527Z,100625.40
2018-07-24T23:08:31.292Z,100638.77
2018-07-24T23:11:00.133Z,100637.95
2018-07-24T23:13:28.926Z,100634.68
2018-07-24T23:15:57.735Z,100641.23
2018-07-24T23:18:27.571Z,100636.05
2018-07-24T23:20:56.415Z,100631.95
2018-07-24T23:23:25.197Z,100640.95
2018-07-24T23:25:54.010Z,100639.89
2018-07-24T23:28:23.334Z,100642.61
2018-07-24T23:30:52.126Z,100647.00
2018-07-24T23:33:20.858Z,100641.81
2018-07-24T23:35:49.650Z,100642.38
2018-07-24T23:38:18.382Z,100643.19
2018-07-24T23:40:47.301Z,100650.29
2018-07-24T23:43:16.275Z,100640.73
2018-07-24T23:45:45.032Z,100642.91
2018-07-24T23:48:14.039Z,100638.83
2018-07-24T23:50:43.035Z,100638.81
2018-07-24T23:53:12.345Z,100636.34
2018-07-24T23:55:42.073Z,100641.51
2018-07-24T23:58:10.945Z,100636.86
